Time;durP1;ratioP1;P1;durP2;ratioP2;P2;SDS_P1;SDS_P2;PMS_P1;PMS_P2;Temp;Humidity;BMP_temperature;BMP_pressure;BME280_temperature;BME280_humidity;BME280_pressure;Samples;Min_cycle;Max_cycle;Signal;HPM_P1;HPM_P2
2022/07/28 00:01:45;;;;;;;1.23;1.10;;;;;;;16.67;43.95;100215.38;4977726;28;20574;-74
2022/07/28 00:04:10;;;;;;;2.27;1.37;;;;;;;16.69;44.36;100217.84;4972611;28;20192;-74
2022/07/28 00:06:35;;;;;;;3.40;1.00;;;;;;;16.73;44.29;100221.84;4974066;28;20201;-74
2022/07/28 00:09:00;;;;;;;4.33;1.10;;;;;;;16.65;44.15;100222.44;4973872;28;20238;-73
2022/07/28 00:11:26;;;;;;;1.77;0.90;;;;;;;16.57;44.17;100230.00;4966291;28;20626;-73
2022/07/28 00:13:51;;;;;;;3.93;1.30;;;;;;;16.55;44.67;100230.13;4988849;28;20179;-74
2022/07/28 00:16:17;;;;;;;3.83;1.27;;;;;;;16.65;44.63;100227.66;4973735;28;20691;-74
2022/07/28 00:18:42;;;;;;;1.73;0.97;;;;;;;16.55;44.44;100222.34;4973489;28;20172;-73
2022/07/28 00:21:08;;;;;;;4.97;1.63;;;;;;;16.55;45.27;100224.94;4972684;28;20758;-73
2022/07/28 00:23:33;;;;;;;3.17;0.93;;;;;;;16.50;44.93;100210.69;4980495;28;20347;-74
2022/07/28 00:25:58;;;;;;;2.10;1.37;;;;;;;16.49;45.17;100216.81;4972476;28;20211;-74
2022/07/28 00:28:23;;;;;;;3.37;1.40;;;;;;;16.53;45.23;100218.22;4973807;28;20291;-74
2022/07/28 00:30:49;;;;;;;2.83;0.97;;;;;;;16.49;45.20;100209.84;4969303;28;20230;-74
2022/07/28 00:33:14;;;;;;;4.13;1.20;;;;;;;16.43;45.44;100210.31;4988624;28;20273;-73
2022/07/28 00:35:39;;;;;;;3.77;1.30;;;;;;;16.31;45.73;100217.28;4973945;28;20180;-73
2022/07/28 00:38:05;;;;;;;3.23;1.20;;;;;;;16.33;45.47;100212.78;4972141;28;20194;-73
2022/07/28 00:43:14;;;;;;;3.37;1.40;;;;;;;16.39;45.49;100208.91;4982048;28;20203;-73
2022/07/28 00:45:40;;;;;;;3.53;1.10;;;;;;;16.28;45.57;100205.34;4988621;28;20176;-73
2022/07/28 00:48:05;;;;;;;1.40;1.20;;;;;;;16.30;46.35;100206.06;4973277;28;20639;-73
2022/07/28 00:50:31;;;;;;;2.07;1.17;;;;;;;16.36;45.94;100202.19;4965093;28;20257;-73
2022/07/28 00:52:57;;;;;;;3.13;1.23;;;;;;;16.22;45.93;100194.63;4985077;28;20195;-74
2022/07/28 00:55:23;;;;;;;2.63;1.30;;;;;;;16.21;46.16;100201.59;4988597;28;20266;-73
2022/07/28 00:57:48;;;;;;;4.90;1.03;;;;;;;16.25;45.99;100192.63;4988429;28;20886;-73
2022/07/28 01:00:14;;;;;;;2.70;1.10;;;;;;;16.28;46.34;100194.97;4964245;28;20300;-74
2022/07/28 01:02:40;;;;;;;3.00;1.10;;;;;;;16.14;46.53;100200.41;4972152;28;20200;-74
2022/07/28 01:05:08;;;;;;;4.80;1.10;;;;;;;16.15;46.48;100194.28;4988095;28;20215;-74
2022/07/28 01:07:45;;;;;;;2.90;0.97;;;;;;;16.07;46.88;100196.63;4988066;28;20313;-74
2022/07/28 01:10:31;;;;;;;2.23;1.20;;;;;;;16.09;47.01;100192.16;4963391;28;20270;-74
2022/07/28 01:13:45;;;;;;;4.07;1.10;;;;;;;16.04;46.74;100194.25;4972000;28;20184;-74
2022/07/28 01:16:10;;;;;;;4.77;1.20;;;;;;;16.08;46.66;100188.72;4985875;28;20231;-74
2022/07/28 01:18:45;;;;;;;1.80;1.00;;;;;;;16.10;46.79;100186.00;4972975;28;20191;-74
2022/07/28 01:21:14;;;;;;;2.57;0.97;;;;;;;16.05;47.01;100185.53;4965283;28;20817;-74
2022/07/28 01:23:48;;;;;;;2.07;1.13;;;;;;;16.06;47.00;100177.66;4987711;28;20570;-74
2022/07/28 01:26:44;;;;;;;2.90;1.03;;;;;;;16.08;47.06;100177.53;4973256;28;20187;-74
2022/07/28 01:29:51;;;;;;;1.50;1.10;;;;;;;15.95;47.46;100175.03;4975300;28;20363;-74
2022/07/28 01:32:24;;;;;;;2.90;1.20;;;;;;;16.01;47.36;100177.16;4981751;28;20311;-74
2022/07/28 01:35:17;;;;;;;2.93;1.30;;;;;;;15.94;47.06;100166.44;4979816;28;20199;-74
2022/07/28 01:37:46;;;;;;;1.27;0.87;;;;;;;16.06;47.45;100169.03;4964763;28;20175;-74
2022/07/28 01:40:15;;;;;;;1.97;1.07;;;;;;;15.91;47.51;100158.88;4976838;28;20180;-74
2022/07/28 01:42:45;;;;;;;1.93;1.00;;;;;;;15.96;47.40;100164.56;4987682;28;20693;-74
2022/07/28 01:45:14;;;;;;;2.17;1.07;;;;;;;15.92;47.30;100163.13;4978112;28;20184;-74
2022/07/28 01:47:44;;;;;;;4.63;1.43;;;;;;;16.01;47.85;100169.38;4994205;28;20191;-74
2022/07/28 01:50:11;;;;;;;2.27;1.20;;;;;;;15.87;47.50;100161.81;4969526;28;20640;-74
2022/07/28 01:52:39;;;;;;;2.93;1.10;;;;;;;15.91;47.56;100166.66;4989702;28;20201;-74
2022/07/28 01:55:06;;;;;;;2.30;1.03;;;;;;;15.99;47.40;100163.50;4993338;28;20311;-74
2022/07/28 01:57:33;;;;;;;1.97;0.90;;;;;;;15.77;48.11;100157.28;4994203;28;20271;-74
2022/07/28 02:00:00;;;;;;;3.10;1.20;;;;;;;15.96;47.93;100161.13;4994323;28;20221;-74
2022/07/28 02:02:28;;;;;;;5.57;1.20;;;;;;;15.98;48.22;100157.47;4968103;28;20307;-74
2022/07/28 02:04:56;;;;;;;3.47;1.30;;;;;;;15.93;47.92;100146.59;4994133;28;20258;-74
2022/07/28 02:11:38;;;;;;;2.77;1.00;;;;;;;15.78;47.83;100142.56;4951277;28;20286;-74
2022/07/28 02:14:24;;;;;;;2.97;1.30;;;;;;;15.81;47.75;100144.91;4961290;28;20650;-74
2022/07/28 02:16:56;;;;;;;3.63;0.93;;;;;;;15.79;47.81;100142.44;4959852;28;20201;-73
2022/07/28 02:19:23;;;;;;;7.50;1.80;;;;;;;15.94;47.29;100137.06;4967511;28;20184;-74
2022/07/28 02:21:49;;;;;;;2.10;1.37;;;;;;;16.05;46.91;100144.84;4954035;28;20319;-74
2022/07/28 02:24:18;;;;;;;4.93;1.50;;;;;;;16.02;46.97;100142.47;4974351;28;20624;-73
2022/07/28 02:26:56;;;;;;;2.30;1.00;;;;;;;15.96;47.00;100141.19;4958393;29;20204;-73
2022/07/28 02:29:23;;;;;;;5.73;1.30;;;;;;;16.02;47.31;100121.72;4973897;28;20519;-73
2022/07/28 02:31:53;;;;;;;2.73;0.93;;;;;;;16.00;46.88;100120.19;4967613;28;20235;-74
2022/07/28 02:34:22;;;;;;;4.77;1.47;;;;;;;15.84;47.26;100120.53;4960448;28;20192;-72
2022/07/28 02:36:54;;;;;;;2.87;1.13;;;;;;;15.96;47.12;100109.22;4974535;28;20180;-74
2022/07/28 02:39:25;;;;;;;2.47;1.03;;;;;;;15.93;47.09;100105.09;4975523;28;20640;-74
2022/07/28 02:41:59;;;;;;;2.20;1.13;;;;;;;15.79;47.11;100100.94;4948035;28;20224;-74
2022/07/28 02:44:30;;;;;;;3.47;1.40;;;;;;;15.86;47.34;100095.31;4971215;28;20212;-73
2022/07/28 02:46:58;;;;;;;3.30;1.20;;;;;;;15.79;47.31;100094.94;4956510;28;20239;-74
2022/07/28 02:49:29;;;;;;;2.77;1.33;;;;;;;15.82;47.35;100095.53;4970723;28;20936;-73
2022/07/28 02:51:57;;;;;;;3.93;1.23;;;;;;;15.78;47.50;100090.72;4948344;28;20227;-74
2022/07/28 02:54:24;;;;;;;5.73;1.03;;;;;;;15.81;47.48;100088.72;4956783;28;20191;-73
2022/07/28 02:56:51;;;;;;;2.73;1.20;;;;;;;15.76;47.75;100100.34;4955093;28;20546;-73
2022/07/28 02:59:19;;;;;;;3.50;0.97;;;;;;;15.69;47.80;100097.41;4970767;28;20185;-73
2022/07/28 03:01:46;;;;;;;2.40;0.80;;;;;;;15.67;47.72;100096.69;4953911;28;20715;-73
2022/07/28 03:04:13;;;;;;;2.33;1.00;;;;;;;15.70;47.81;100098.22;4958117;28;20283;-73
2022/07/28 03:06:39;;;;;;;5.93;1.57;;;;;;;15.76;47.65;100098.56;4953524;28;20225;-73
2022/07/28 03:09:07;;;;;;;4.40;1.80;;;;;;;15.72;48.00;100096.38;4954135;28;20191;-74
2022/07/28 03:11:33;;;;;;;2.60;1.20;;;;;;;15.73;47.19;100104.00;4963789;28;20363;-73
2022/07/28 03:13:58;;;;;;;2.87;1.10;;;;;;;15.66;47.79;100102.81;4962914;28;20228;-73
2022/07/28 03:16:24;;;;;;;1.97;1.00;;;;;;;15.70;47.97;100100.81;4967503;28;20745;-73
2022/07/28 03:18:49;;;;;;;4.57;1.20;;;;;;;15.68;47.88;100094.91;4965911;28;20185;-73
2022/07/28 03:21:14;;;;;;;5.10;1.10;;;;;;;15.62;47.79;100104.00;4957773;28;20261;-73
2022/07/28 03:23:46;;;;;;;3.37;1.30;;;;;;;15.69;47.97;100102.59;4977123;28;20209;-73
2022/07/28 03:26:39;;;;;;;2.90;1.30;;;;;;;15.61;48.06;100108.34;4970642;28;20563;-73
2022/07/28 03:29:07;;;;;;;1.37;1.00;;;;;;;15.65;47.72;100099.41;4982310;28;20248;-73
2022/07/28 03:31:35;;;;;;;2.50;1.40;;;;;;;15.64;48.36;100096.91;4940870;28;20596;-73
2022/07/28 03:34:00;;;;;;;4.77;1.63;;;;;;;15.60;48.27;100108.47;4949710;29;20215;-74
2022/07/28 03:36:34;;;;;;;2.70;1.03;;;;;;;15.72;47.45;100106.72;4955675;28;20589;-73
2022/07/28 03:39:02;;;;;;;2.10;1.20;;;;;;;15.70;48.40;100108.59;4954385;29;20602;-74
2022/07/28 03:41:28;;;;;;;2.90;1.30;;;;;;;15.77;47.71;100112.38;4945821;28;20306;-73
2022/07/28 03:43:55;;;;;;;2.83;1.30;;;;;;;15.68;47.53;100105.28;4958469;28;20232;-74
2022/07/28 03:46:20;;;;;;;1.10;1.00;;;;;;;15.76;47.40;100108.94;4953683;29;20195;-73
2022/07/28 03:48:46;;;;;;;4.50;1.13;;;;;;;15.66;47.64;100108.00;4953524;28;20176;-73
2022/07/28 03:51:11;;;;;;;6.37;1.40;;;;;;;15.71;47.93;100103.28;4962798;28;20235;-75
2022/07/28 03:53:37;;;;;;;2.43;1.03;;;;;;;15.81;47.53;100103.41;4961063;28;20181;-74
2022/07/28 03:56:03;;;;;;;1.80;1.10;;;;;;;15.72;47.70;100102.34;4955011;28;20192;-74
2022/07/28 03:58:29;;;;;;;4.70;1.00;;;;;;;15.83;47.59;100106.75;4953890;29;20181;-74
2022/07/28 04:00:55;;;;;;;4.83;1.53;;;;;;;15.75;47.66;100101.28;4953031;28;20227;-74
2022/07/28 04:03:20;;;;;;;3.80;1.10;;;;;;;15.72;47.74;100098.94;4972138;28;20870;-73
2022/07/28 04:05:46;;;;;;;2.43;1.10;;;;;;;15.73;47.71;100093.63;4953653;29;20185;-73
2022/07/28 04:08:11;;;;;;;6.90;1.23;;;;;;;15.82;47.41;100102.50;4985827;28;20549;-73
2022/07/28 04:10:37;;;;;;;3.07;1.30;;;;;;;15.92;47.23;100108.63;4950965;28;20250;-74
2022/07/28 04:13:02;;;;;;;7.00;1.30;;;;;;;15.91;47.77;100106.16;4977224;28;20232;-73
2022/07/28 04:15:29;;;;;;;6.93;1.50;;;;;;;16.04;47.29;100104.28;4969520;28;20267;-74
2022/07/28 04:17:55;;;;;;;5.27;1.30;;;;;;;16.07;47.26;100106.63;4953493;29;20224;-74
2022/07/28 04:20:23;;;;;;;2.37;1.03;;;;;;;16.20;46.86;100105.66;4948891;28;20695;-73
2022/07/28 04:22:50;;;;;;;3.60;1.10;;;;;;;16.08;47.27;100097.09;4980189;28;20300;-74
2022/07/28 04:25:17;;;;;;;1.63;0.93;;;;;;;16.17;46.53;100101.53;4953283;28;20188;-74
2022/07/28 04:27:43;;;;;;;4.83;1.33;;;;;;;16.17;46.71;100096.34;4953370;28;20180;-73
2022/07/28 04:30:12;;;;;;;3.20;1.10;;;;;;;16.22;47.12;100098.59;4960350;28;20189;-74
2022/07/28 04:32:40;;;;;;;1.03;0.93;;;;;;;16.21;46.90;100100.38;4968534;28;20205;-75
2022/07/28 04:35:07;;;;;;;5.73;1.20;;;;;;;16.26;46.68;100100.00;4953878;29;20195;-75
2022/07/28 04:37:33;;;;;;;6.87;1.43;;;;;;;16.33;47.30;100101.16;4986345;28;20201;-75
2022/07/28 04:39:59;;;;;;;3.60;1.27;;;;;;;16.47;46.32;100097.47;4948199;28;20704;-76
2022/07/28 04:42:24;;;;;;;1.37;1.13;;;;;;;16.58;45.89;100096.63;4969519;28;20778;-74
2022/07/28 04:44:50;;;;;;;2.50;1.20;;;;;;;16.62;45.93;100095.44;4955004;28;20601;-74
2022/07/28 04:47:15;;;;;;;3.50;1.30;;;;;;;16.52;45.98;100103.16;4955339;28;20216;-75
2022/07/28 04:49:41;;;;;;;2.83;1.07;;;;;;;16.66;46.16;100102.03;4953233;28;20181;-75
2022/07/28 04:52:09;;;;;;;1.13;1.03;;;;;;;16.67;46.13;100105.44;4975796;28;20290;-75
2022/07/28 04:54:35;;;;;;;3.03;1.30;;;;;;;16.57;45.88;100108.81;4953510;29;20181;-75
2022/07/28 04:57:01;;;;;;;3.43;1.17;;;;;;;16.66;46.17;100103.81;4954018;29;20684;-75
2022/07/28 04:59:26;;;;;;;5.60;1.40;;;;;;;16.56;46.40;100117.53;4969358;28;20220;-75
2022/07/28 05:01:52;;;;;;;4.33;1.30;;;;;;;16.55;46.45;100109.88;4977562;28;20702;-75
2022/07/28 05:04:17;;;;;;;4.90;1.47;;;;;;;16.56;46.72;100107.16;4957235;28;20303;-75
2022/07/28 05:06:43;;;;;;;5.63;1.30;;;;;;;16.55;46.15;100110.69;4955303;28;20227;-75
2022/07/28 05:09:09;;;;;;;3.33;1.20;;;;;;;16.67;46.55;100110.66;4955200;28;20188;-76
2022/07/28 05:11:34;;;;;;;1.57;1.23;;;;;;;16.70;46.13;100113.81;4958807;28;20234;-74
2022/07/28 05:13:59;;;;;;;4.37;1.40;;;;;;;16.68;45.73;100102.72;4972910;28;20692;-75
2022/07/28 05:16:25;;;;;;;5.47;1.10;;;;;;;16.72;45.96;100103.31;4954554;28;20185;-75
2022/07/28 05:18:50;;;;;;;3.63;1.00;;;;;;;16.74;46.11;100106.63;4949232;28;20705;-75
2022/07/28 05:21:15;;;;;;;4.20;1.30;;;;;;;16.78;46.77;100106.25;4954221;28;20223;-75
2022/07/28 05:23:41;;;;;;;2.63;1.23;;;;;;;16.90;46.83;100106.22;4966043;28;20282;-75
2022/07/28 05:26:06;;;;;;;5.70;1.20;;;;;;;17.22;45.94;100110.59;4954589;28;20181;-74
2022/07/28 05:28:32;;;;;;;7.00;1.27;;;;;;;17.03;45.36;100103.44;4954223;28;20731;-73
2022/07/28 05:30:58;;;;;;;7.33;1.30;;;;;;;17.07;46.04;100100.47;4969496;28;20215;-75
2022/07/28 05:33:23;;;;;;;2.20;1.33;;;;;;;17.01;45.94;100097.56;4977401;28;20280;-74
2022/07/28 05:35:56;;;;;;;5.93;1.30;;;;;;;17.03;46.31;100106.88;4952719;29;20271;-75
2022/07/28 05:38:22;;;;;;;2.43;1.03;;;;;;;17.21;45.95;100096.75;4952373;29;20179;-75
2022/07/28 05:40:49;;;;;;;2.63;1.03;;;;;;;17.26;45.56;100099.78;4938692;28;20231;-75
2022/07/28 05:43:14;;;;;;;3.93;1.43;;;;;;;17.35;45.04;100105.19;4961575;28;20326;-75
2022/07/28 05:45:39;;;;;;;2.73;1.20;;;;;;;17.65;45.16;100111.38;4968680;28;20184;-75
2022/07/28 05:48:05;;;;;;;5.07;1.53;;;;;;;17.74;45.00;100108.00;4953449;28;20319;-75
2022/07/28 05:50:31;;;;;;;2.57;1.20;;;;;;;17.80;44.52;100111.84;4950953;28;20776;-75
2022/07/28 05:52:56;;;;;;;3.97;1.33;;;;;;;17.96;44.28;100107.03;4977202;28;20212;-76
2022/07/28 05:55:21;;;;;;;2.23;1.10;;;;;;;18.06;43.65;100107.06;4952512;29;20512;-75
2022/07/28 05:57:47;;;;;;;2.63;1.23;;;;;;;17.97;44.31;100105.25;4952089;29;20224;-75
2022/07/28 06:00:15;;;;;;;4.43;1.30;;;;;;;17.98;44.50;100102.50;4946093;28;20244;-74
2022/07/28 06:02:44;;;;;;;1.80;0.97;;;;;;;18.21;43.22;100110.13;4981290;28;20209;-75
2022/07/28 06:05:09;;;;;;;2.87;1.20;;;;;;;18.48;42.78;100111.25;4953780;28;20244;-74
2022/07/28 06:07:35;;;;;;;7.60;1.30;;;;;;;18.84;42.53;100108.94;4952227;28;20609;-74
2022/07/28 06:10:00;;;;;;;2.33;1.30;;;;;;;19.06;42.30;100112.28;4951265;29;20179;-75
2022/07/28 06:12:25;;;;;;;1.30;1.10;;;;;;;19.22;41.45;100117.75;4974335;28;20287;-75
2022/07/28 06:14:50;;;;;;;3.90;1.30;;;;;;;19.03;41.92;100116.78;4953736;28;20181;-75
2022/07/28 06:17:16;;;;;;;4.17;1.33;;;;;;;18.70;42.44;100118.00;4956061;28;20260;-75
2022/07/28 06:19:42;;;;;;;3.93;1.30;;;;;;;19.06;42.12;100107.06;4956628;28;20543;-75
2022/07/28 06:22:08;;;;;;;3.53;1.30;;;;;;;18.75;42.26;100112.38;4964116;28;20216;-75
2022/07/28 06:24:34;;;;;;;5.93;1.30;;;;;;;18.84;42.39;100112.41;4971621;28;20223;-74
2022/07/28 06:27:01;;;;;;;4.23;1.50;;;;;;;18.81;42.31;100111.84;4971918;28;20204;-75
2022/07/28 06:29:27;;;;;;;5.13;1.47;;;;;;;18.85;42.30;100110.59;4955849;28;20215;-76
2022/07/28 06:31:52;;;;;;;5.27;1.33;;;;;;;18.66;42.44;100117.44;4975943;28;20227;-75
2022/07/28 06:34:18;;;;;;;2.97;1.10;;;;;;;18.84;42.43;100116.75;4959642;28;20189;-74
2022/07/28 06:36:44;;;;;;;3.07;1.10;;;;;;;19.21;41.74;100113.47;4957150;28;20187;-75
2022/07/28 06:39:09;;;;;;;7.77;1.50;;;;;;;19.61;40.63;100104.63;4943077;28;20180;-74
2022/07/28 06:41:40;;;;;;;5.03;1.60;;;;;;;19.90;40.47;100110.72;4957654;28;20621;-75
2022/07/28 06:44:05;;;;;;;5.20;1.20;;;;;;;19.50;40.99;100110.00;4975235;28;20763;-74
2022/07/28 06:46:30;;;;;;;3.37;1.50;;;;;;;19.74;40.76;100111.31;4958562;28;20216;-76
2022/07/28 06:48:55;;;;;;;3.87;1.27;;;;;;;20.50;39.20;100110.25;4954969;28;20271;-77
2022/07/28 06:51:22;;;;;;;3.37;1.57;;;;;;;21.07;38.01;100111.75;4959227;28;20285;-76
2022/07/28 06:53:47;;;;;;;2.83;1.33;;;;;;;21.66;36.60;100122.47;4960577;28;20644;-77
2022/07/28 06:56:13;;;;;;;6.30;1.33;;;;;;;21.38;37.09;100121.78;4954563;29;20185;-74
2022/07/28 06:58:38;;;;;;;5.30;1.17;;;;;;;21.33;37.38;100118.81;4954781;28;20243;-75
2022/07/28 07:01:06;;;;;;;4.97;1.40;;;;;;;21.02;37.81;100119.22;4952218;28;20607;-74
2022/07/28 07:03:32;;;;;;;4.80;1.57;;;;;;;21.35;37.91;100111.63;4978372;28;20267;-74
2022/07/28 07:05:57;;;;;;;11.73;1.67;;;;;;;22.07;36.33;100109.53;4954610;29;20195;-75
2022/07/28 07:08:23;;;;;;;3.83;1.63;;;;;;;21.65;36.66;100114.78;4970794;28;20181;-76
2022/07/28 07:10:48;;;;;;;5.03;1.23;;;;;;;21.16;37.73;100116.09;4957819;28;20223;-76
2022/07/28 07:13:14;;;;;;;2.37;1.20;;;;;;;20.86;38.40;100117.31;4974791;28;20268;-75
2022/07/28 07:15:39;;;;;;;6.80;1.20;;;;;;;20.48;39.51;100120.03;4955831;28;20397;-74
2022/07/28 07:18:05;;;;;;;3.70;1.40;;;;;;;21.16;38.52;100117.88;4981684;28;20191;-75
2022/07/28 07:20:30;;;;;;;4.07;1.20;;;;;;;22.51;35.79;100121.66;4952629;28;20233;-75
2022/07/28 07:22:55;;;;;;;3.23;1.20;;;;;;;23.15;34.30;100120.22;4979415;28;20204;-76
2022/07/28 07:25:21;;;;;;;3.00;1.27;;;;;;;22.53;35.28;100119.69;4955669;28;20204;-75
2022/07/28 07:27:46;;;;;;;3.97;0.90;;;;;;;22.51;35.78;100113.81;4954094;28;20181;-74
2022/07/28 07:30:13;;;;;;;4.67;1.10;;;;;;;22.66;35.21;100118.38;4959219;28;20279;-73
2022/07/28 07:32:38;;;;;;;6.97;1.50;;;;;;;23.49;34.01;100122.66;4984061;28;20180;-74
2022/07/28 07:35:05;;;;;;;4.90;1.60;;;;;;;24.32;32.80;100109.19;4954541;29;20189;-74
2022/07/28 07:37:31;;;;;;;9.03;1.60;;;;;;;24.84;31.78;100110.34;4955370;28;20181;-74
2022/07/28 07:39:58;;;;;;;3.17;1.37;;;;;;;25.43;30.92;100103.59;4963265;28;20185;-70
2022/07/28 07:42:23;;;;;;;5.25;1.50;;;;;;;25.96;30.08;100097.34;4969450;28;20692;-74
2022/07/28 07:44:48;;;;;;;3.47;1.20;;;;;;;25.94;30.16;100102.81;4970148;28;20189;-74
2022/07/28 07:47:14;;;;;;;3.83;1.25;;;;;;;25.33;30.97;100105.63;4955297;28;20637;-75
2022/07/28 07:49:39;;;;;;;5.50;1.35;;;;;;;25.32;31.01;100102.19;4953515;28;20263;-76
2022/07/28 07:52:05;;;;;;;4.63;1.33;;;;;;;24.86;31.59;100100.47;4963217;28;20223;-73
2022/07/28 07:54:30;;;;;;;2.83;1.23;;;;;;;24.91;32.28;100103.38;4955492;28;20602;-75
2022/07/28 07:56:56;;;;;;;4.63;1.30;;;;;;;25.65;30.78;100107.13;4954375;28;20606;-76
2022/07/28 07:59:21;;;;;;;3.92;1.35;;;;;;;26.48;29.89;100104.22;4953622;28;20686;-75
2022/07/28 08:01:49;;;;;;;4.97;1.38;;;;;;;26.23;30.31;100101.13;4961123;28;20641;-74
2022/07/28 08:04:16;;;;;;;3.45;1.33;;;;;;;26.62;29.31;100109.63;4957787;28;20228;-73
2022/07/28 08:06:41;;;;;;;11.25;1.65;;;;;;;26.86;29.17;100101.34;4953228;29;20204;-74
2022/07/28 08:09:06;;;;;;;2.70;1.10;;;;;;;27.10;29.27;100107.19;4954465;28;20552;-74
2022/07/28 08:11:32;;;;;;;5.85;1.50;;;;;;;25.77;30.36;100103.00;4968139;28;20590;-74
2022/07/28 08:13:57;;;;;;;3.63;1.17;;;;;;;25.34;31.23;100104.63;4957473;28;20227;-71
2022/07/28 08:16:22;;;;;;;4.13;1.30;;;;;;;25.71;30.96;100093.22;4985859;28;20193;-75
2022/07/28 08:18:47;;;;;;;1.95;1.35;;;;;;;26.13;30.30;100092.72;4952994;29;20187;-75
2022/07/28 08:21:13;;;;;;;6.25;1.52;;;;;;;26.79;29.61;100097.03;4972364;28;20310;-75
2022/07/28 08:23:39;;;;;;;2.38;1.30;;;;;;;26.55;29.72;100101.66;4959575;28;20258;-74
2022/07/28 08:26:04;;;;;;;4.13;1.38;;;;;;;27.64;28.48;100092.53;4969440;28;20173;-75
2022/07/28 08:28:30;;;;;;;9.00;1.70;;;;;;;26.93;29.73;100092.66;4969463;28;20722;-71
2022/07/28 08:30:55;;;;;;;5.05;1.60;;;;;;;28.00;27.97;100085.34;4958610;28;20230;-74
2022/07/28 08:33:21;;;;;;;4.35;1.30;;;;;;;27.40;28.44;100093.84;4971818;28;20562;-75
2022/07/28 08:35:48;;;;;;;3.38;1.35;;;;;;;27.34;28.63;100095.38;4953109;28;20181;-75
2022/07/28 08:38:14;;;;;;;4.68;1.60;;;;;;;27.12;29.14;100096.47;4951927;28;20191;-74
2022/07/28 08:40:41;;;;;;;4.68;1.50;;;;;;;25.91;30.71;100093.47;4955337;28;20232;-75
2022/07/28 08:43:06;;;;;;;5.35;1.75;;;;;;;25.72;30.88;100086.94;4973602;28;20200;-74
2022/07/28 08:45:32;;;;;;;3.75;1.33;;;;;;;25.84;30.93;100084.66;4953190;28;20192;-74
2022/07/28 08:47:58;;;;;;;4.00;1.55;;;;;;;25.41;31.96;100082.69;4953980;28;20184;-72
2022/07/28 08:50:24;;;;;;;6.55;1.70;;;;;;;25.50;31.71;100090.50;4950153;28;20219;-76
2022/07/28 08:52:51;;;;;;;5.50;1.75;;;;;;;25.50;31.70;100093.94;4979757;28;20283;-77
2022/07/28 08:55:23;;;;;;;3.50;1.63;;;;;;;25.38;31.48;100088.31;4953117;29;20173;-75
2022/07/28 08:57:49;;;;;;;7.10;1.63;;;;;;;25.80;31.49;100088.66;4954300;28;20185;-75
2022/07/28 09:00:15;;;;;;;7.65;1.90;;;;;;;26.23;31.03;100082.69;4961841;28;20207;-73
2022/07/28 09:02:44;;;;;;;9.73;1.90;;;;;;;26.37;30.38;100087.09;4967213;28;20204;-75
2022/07/28 09:05:10;;;;;;;4.07;1.77;;;;;;;27.26;29.61;100086.81;4951944;28;20189;-75
2022/07/28 09:07:37;;;;;;;5.13;1.77;;;;;;;27.06;29.19;100092.75;4954351;28;20275;-76
2022/07/28 09:10:07;;;;;;;5.82;2.00;;;;;;;27.19;29.43;100086.75;4949516;28;20200;-76
2022/07/28 09:12:33;;;;;;;5.43;1.75;;;;;;;26.87;29.61;100086.34;4983387;28;20287;-75
2022/07/28 09:15:04;;;;;;;5.28;1.75;;;;;;;26.15;30.86;100088.91;4953817;28;20239;-75
2022/07/28 09:17:31;;;;;;;5.32;2.13;;;;;;;26.17;30.90;100088.69;4953928;28;20276;-74
2022/07/28 09:19:56;;;;;;;4.80;1.38;;;;;;;26.25;31.27;100084.13;4953692;28;20196;-75
2022/07/28 09:22:21;;;;;;;5.47;1.65;;;;;;;25.55;32.09;100080.22;4975409;28;20234;-74
2022/07/28 09:24:47;;;;;;;5.95;1.63;;;;;;;25.10;32.37;100077.56;4954146;28;20295;-74
2022/07/28 09:27:13;;;;;;;4.15;1.65;;;;;;;24.97;32.92;100065.03;4968619;28;20652;-74
2022/07/28 09:29:43;;;;;;;4.93;1.95;;;;;;;26.17;31.59;100064.97;4953851;28;20255;-73
2022/07/28 09:32:08;;;;;;;5.82;1.98;;;;;;;26.37;30.96;100078.34;4975310;28;20228;-74
2022/07/28 09:34:42;;;;;;;3.55;1.70;;;;;;;27.22;29.66;100076.63;4953690;28;20188;-75
2022/07/28 09:37:20;;;;;;;2.55;1.55;;;;;;;28.11;28.34;100066.28;4953680;28;20185;-75
2022/07/28 09:39:48;;;;;;;3.25;1.55;;;;;;;27.88;29.02;100082.44;4953877;28;20213;-74
2022/07/28 09:42:13;;;;;;;6.68;1.80;;;;;;;27.33;29.33;100072.63;4964239;28;20232;-74
2022/07/28 09:44:39;;;;;;;5.75;1.80;;;;;;;27.67;29.10;100063.09;4973127;28;20208;-76
2022/07/28 09:47:31;;;;;;;4.53;1.63;;;;;;;28.20;28.73;100060.81;4956918;28;20227;-74
2022/07/28 09:49:57;;;;;;;8.32;1.85;;;;;;;27.78;28.92;100063.50;4955001;28;20267;-75
2022/07/28 09:52:37;;;;;;;8.30;1.90;;;;;;;26.63;31.05;100066.41;4955277;28;20368;-74
2022/07/28 09:55:08;;;;;;;6.07;1.73;;;;;;;26.55;31.01;100065.53;4954934;29;20255;-74
2022/07/28 09:57:37;;;;;;;4.90;1.60;;;;;;;26.71;31.09;100071.56;4956564;28;20184;-74
2022/07/28 10:00:06;;;;;;;8.57;1.60;;;;;;;25.80;31.63;100064.97;4951445;28;20184;-74
2022/07/28 10:02:32;;;;;;;6.13;2.00;;;;;;;25.23;33.54;100053.22;4986275;28;20185;-73
2022/07/28 10:04:59;;;;;;;3.80;2.10;;;;;;;25.14;33.22;100053.34;4955710;28;20216;-73
2022/07/28 10:07:27;;;;;;;3.95;1.52;;;;;;;25.18;33.53;100052.97;4955708;28;20213;-74
2022/07/28 10:10:02;;;;;;;4.43;1.70;;;;;;;25.30;32.95;100047.09;4954893;28;20181;-73
2022/07/28 10:12:30;;;;;;;6.22;1.95;;;;;;;26.25;31.84;100047.22;4961572;28;20731;-74
2022/07/28 10:16:09;;;;;;;6.05;1.83;;;;;;;27.10;30.64;100043.03;4971769;28;20657;-74
2022/07/28 10:17:46;;;;;;;14.85;1.50;;;;;;;26.70;31.53;100041.72;4956975;29;20193;-74
2022/07/28 10:20:11;;;;;;;3.00;1.80;;;;;;;27.11;30.74;100037.56;4963416;28;20602;-73
2022/07/28 10:22:39;;;;;;;4.43;1.73;;;;;;;27.28;29.61;100034.63;4986017;28;20236;-74
2022/07/28 10:25:08;;;;;;;3.80;2.33;;;;;;;26.89;30.52;100028.88;4956856;28;20655;-74
2022/07/28 10:27:35;;;;;;;5.03;1.30;;;;;;;26.26;31.44;100038.31;4971739;28;20185;-74
2022/07/28 10:30:03;;;;;;;4.00;1.33;;;;;;;26.90;30.82;100023.44;4955955;28;20206;-74
2022/07/28 10:32:34;;;;;;;3.80;1.30;;;;;;;26.99;29.99;100025.91;4930000;29;20318;-73
2022/07/28 10:35:03;;;;;;;5.80;1.63;;;;;;;28.72;27.96;100016.91;4952600;29;20199;-74
2022/07/28 10:37:30;;;;;;;5.68;1.58;;;;;;;28.59;27.79;100025.66;4956456;28;20185;-74
2022/07/28 10:40:07;;;;;;;4.03;1.85;;;;;;;29.85;26.18;100020.19;4948857;29;20181;-74
2022/07/28 10:42:34;;;;;;;4.18;1.55;;;;;;;28.37;28.03;100008.31;4923783;29;20216;-73
2022/07/28 10:45:01;;;;;;;5.88;1.60;;;;;;;28.73;27.85;100015.06;4952242;28;20272;-73
2022/07/28 10:47:27;;;;;;;7.47;2.10;;;;;;;31.66;24.81;100021.25;4952034;28;20185;-72
2022/07/28 10:49:53;;;;;;;6.97;2.47;;;;;;;33.32;22.95;100023.25;4985135;28;20316;-74
2022/07/28 10:52:20;;;;;;;3.70;1.75;;;;;;;29.22;26.31;100026.16;4978547;28;20596;-74
2022/07/28 10:54:53;;;;;;;2.97;1.50;;;;;;;28.64;28.28;100017.06;4954956;29;20305;-74
2022/07/28 10:57:22;;;;;;;3.33;1.50;;;;;;;27.50;29.25;100019.50;4954932;28;20628;-73
2022/07/28 11:00:02;;;;;;;3.60;2.13;;;;;;;26.88;30.26;100016.72;4954231;28;20192;-73
2022/07/28 11:02:49;;;;;;;5.13;1.63;;;;;;;26.24;30.94;100005.22;4934362;28;20228;-73
2022/07/28 11:05:37;;;;;;;3.35;1.70;;;;;;;26.05;31.72;100006.66;4956269;28;20189;-73
2022/07/28 11:08:25;;;;;;;4.65;1.65;;;;;;;26.08;31.80;99998.38;4954825;28;20564;-73
2022/07/28 11:10:52;;;;;;;5.20;1.80;;;;;;;25.93;32.29;100003.69;4947649;28;20246;-73
2022/07/28 11:13:24;;;;;;;3.83;1.60;;;;;;;26.06;31.87;100009.13;4974150;28;20322;-73
2022/07/28 11:15:50;;;;;;;3.33;1.77;;;;;;;26.17;31.74;99999.06;4954271;28;20282;-73
2022/07/28 11:18:16;;;;;;;8.90;1.67;;;;;;;25.92;32.05;99991.50;4964136;28;20189;-73
2022/07/28 11:20:56;;;;;;;3.10;1.55;;;;;;;25.96;32.02;99995.38;4956178;28;20228;-73
2022/07/28 11:23:48;;;;;;;7.68;4.32;;;;;;;25.93;32.15;99995.78;4973442;28;20209;-73
2022/07/28 11:26:20;;;;;;;5.00;1.60;;;;;;;25.74;32.60;99992.75;4941157;29;20182;-74
2022/07/28 11:29:09;;;;;;;4.00;1.98;;;;;;;25.74;32.07;99982.22;4951549;29;20210;-73
2022/07/28 11:31:44;;;;;;;4.60;1.30;;;;;;;25.57;32.21;99972.91;4950751;28;20235;-73
2022/07/28 11:34:11;;;;;;;4.43;2.25;;;;;;;25.59;32.67;99978.81;4959054;28;20191;-73
2022/07/28 11:37:01;;;;;;;7.10;2.20;;;;;;;25.61;32.49;99972.34;4970329;28;20275;-73